Harry Richardson

Olheiro-Chefe - Manchester United
17 Fev 2028
Quinta-feira
Processo

Personalidade

Adaptabilidade (16) Ambição (15) Controvérsia (7) Lealdade (4) Pressão (13) Profissionalismo (16) Espírito Esportivo (8) Temperamento (17)

Perfil

Estilo de Treinamento Democrático
Licença Nacional B
Determinação 10
Gestão de Pessoas 9
Motivação 12
Disciplina 11
Satisfação no Trabalho
100%
Fadiga
0%
Função Olheiro-Chefe
Salário 120.2K p/s
Contrato 14.03.2029

Desempenho

Comportamento Bom
Eficácia do Treinamento
55%
Desenvolvimento do Jogador
60%
Prevenção de Lesões
80%
Implementação Tática
65%

Eventos Recentes

Avaliou um jogador agora
Participou de uma reunião de recrutamento agora
Recomendou um alvo de transferência agora
Recomendou um alvo de transferência agora
Recomendou um alvo de transferência agora
Avaliou um jogador 7d atrás
Avaliou um jogador 7d atrás
Avaliou um jogador 7d atrás

Monitorando agora

125
Jogador Clube Status Habilidade Confiança Observado Última observação Último voto
Sascha Britschgi Padova Ativo 123 / 124 40% 3 15.02.2028 -
Honest Ahanor AS Roma Ativo 136 / 142 40% 2 15.02.2028 -
Juan Giménez Celta Ativo 120 / 129 40% 1 15.02.2028 -
Myles Lewis-Skelly Birmingham Ativo 155 / 155 40% 2 14.02.2028 -
Ayden Heaven Luton Town Ativo 150 / 144 40% 1 14.02.2028 -
Jofre Torrents Ajax Ativo 130 / 133 40% 5 13.02.2028 -
Noahkai Banks Hamburger SV Ativo 139 / 140 40% 2 13.02.2028 -
Giovanni Leoni Bradford City Ativo 141 / 137 40% 1 13.02.2028 -
Jorthy Mokio ADO Den Haag Ativo 134 / 135 40% 1 11.02.2028 -
Trey Nyoni Rotherham United Ativo 138 / 145 40% 1 11.02.2028 -
Kauã Moraes Cruzeiro Ativo 129 / 134 40% 1 10.02.2028 -
Ismail Al Suwaidi Al Fujairah Ativo 128 / 138 40% 2 09.02.2028 -
Izan Merino Málaga Ativo 131 / 134 40% 1 09.02.2028 -
Jorrel Hato Chelsea Ativo 154 / 157 40% 1 09.02.2028 -
Ronan Kpakio Cardiff City Ativo 121 / 121 40% 2 08.02.2028 -
Eduardo Felicíssimo Sporting CP Ativo 120 / 123 40% 1 08.02.2028 -
Daniel Banjaqui Benfica Ativo 121 / 133 40% 1 07.02.2028 -
Matías Soulé AS Roma Ativo 162 / 155 40% 9 01.02.2028 -
Wilson Odobert Bristol City Ativo 151 / 142 40% 2 01.02.2028 -
Adam Wharton Crystal Palace Ativo 157 / 159 40% 2 01.02.2028 -
Kenan Yıldız Juventus Ativo 164 / 170 40% 10 17.01.2028 -
Tom Fellows Southampton Ativo 138 / 139 40% 2 17.01.2028 -
Bukayo Saka Arsenal Perdido 184 / 184 86% 1 17.01.2028 Aprovar
Sandro Tonali Tottenham Perdido 175 / 173 40% 28 10.01.2028 -
Mohammed Kudus Tottenham Perdido 167 / 164 40% 9 10.01.2028 -
Cole Palmer Chelsea Perdido 179 / 170 40% 1 10.01.2028 -
Kevin Paredes River Plate Ativo 140 / 120 40% 1 05.01.2028 -
Alex Scott Bournemouth Ativo 154 / 150 40% 2 01.01.2028 -
Mao Hosoya Everton Ativo 134 / 135 67% 1 01.01.2028 Aprovar
Yankuba Minteh Brighton Ativo 152 / 163 86% 1 01.01.2028 Aprovar
Patrick Dorgu Sheffield Wednesday Ativo 144 / 154 40% 1 01.01.2028 -
Conor Bradley Bristol City Ativo 158 / 150 40% 1 01.01.2028 -
Archie Gray Derby County Ativo 145 / 147 40% 1 30.08.2027 -
Kobbie Mainoo Leicester City Ativo 152 / 163 40% 1 24.08.2027 -
Nicolò Savona Nottingham Forest Ativo 144 / 144 40% 1 24.08.2027 -
Moisés Caicedo Chelsea Ativo 171 / 177 40% 18 16.08.2027 -
Gabriel Martinelli Brighton Ativo 164 / 168 40% 3 16.08.2027 -
Joško Gvardiol Napoli Perdido 169 / 175 40% 4 16.08.2027 -
Jesús Rodríguez Como Ativo 147 / 158 40% 3 12.08.2027 -
Jayden Addai Como Ativo 138 / 147 40% 2 12.08.2027 -
Francisco Conceição Juventus Ativo 162 / 154 40% 11 11.08.2027 -
Antonio Vergara Napoli Ativo 140 / 139 40% 1 11.08.2027 -
Christ Inao Oulaï Fiorentina Ativo 137 / 139 40% 1 10.08.2027 -
Alessandro Bianco Modena Ativo 135 / 134 40% 1 10.08.2027 -
Kevin Fulham Ativo 154 / 158 40% 4 02.08.2027 -
Ilyas Ansah Hull City Ativo 136 / 133 40% 3 02.08.2027 -
Shea Charles Southampton Ativo 139 / 133 40% 3 01.08.2027 -
Assane Diao Lazio Ativo 148 / 151 40% 5 31.07.2027 -
Yehor Yarmoliuk Brentford Ativo 155 / 158 40% 1 31.07.2027 -
Toby Collyer West Bromwich Albion Ativo 133 / 141 40% 1 31.07.2027 -
Kwadwo Baah Watford Ativo 132 / 131 40% 3 30.07.2027 -
Christos Mouzakitis Hull City Ativo 134 / 146 40% 4 29.07.2027 -
Xavi Simons Tottenham Ativo 159 / 161 40% 13 28.07.2027 -
Levi Colwill Chelsea Ativo 160 / 164 40% 26 26.07.2027 -
Isaac Price West Bromwich Albion Ativo 134 / 142 40% 1 26.07.2027 -
Malo Gusto Chelsea Ativo 151 / 161 40% 1 26.07.2027 -
Andre Brooks Sheffield United Ativo 129 / 127 40% 1 23.07.2027 -
Ben Gannon Doak Bournemouth Ativo 143 / 151 40% 3 22.07.2027 -
Leo Castledine Middlesbrough Ativo 130 / 135 40% 3 20.07.2027 -
Oscar Schwartau Norwich City Ativo 125 / 124 40% 3 20.07.2027 -
Davide Bartesaghi AC Milan Ativo 132 / 131 40% 3 19.07.2027 -
Matheus Gonçalves Al-Ahli Ativo 135 / 122 40% 1 19.07.2027 -
Caleb Yirenkyi Coventry City Ativo 141 / 136 40% 2 18.07.2027 -
Alphadjo Cissé Como Ativo 125 / 130 40% 6 18.07.2027 -
Johan Manzambi Newcastle United Ativo 147 / 149 40% 2 17.07.2027 -
Abdul Fatawu Leicester City Ativo 144 / 132 40% 1 17.07.2027 -
Shea Lacey Wolverhampton Ativo 125 / 133 40% 4 13.07.2027 -
Josh King Chelsea Ativo 145 / 154 40% 4 12.07.2027 -
Kirill Glebov CSKA Moscow Ativo 131 / 125 40% 1 10.07.2027 -
Mfundo Vilakazi Kaizer Chiefs Ativo 116 / 129 40% 1 06.07.2027 -
Kutlwano Letlhaku Ajax Cape Town Ativo 123 / 113 40% 1 03.07.2027 -
Othmane Maamma Watford Ativo 127 / 133 40% 1 30.06.2027 -
Jakub Kiwior Everton Ativo 158 / 167 40% 4 27.06.2027 -
Curtis Jones Inter Ativo 162 / 151 40% 15 22.06.2027 -
Nico González Newcastle United Ativo 162 / 162 40% 33 21.06.2027 -
Morgan Rogers Chelsea Ativo 164 / 167 40% 17 21.06.2027 -
Declan Rice Arsenal Ativo 188 / 178 40% 6 21.06.2027 -
Riccardo Calafiori Hull City Ativo 154 / 163 40% 2 21.06.2027 -
Jurriën Timber Arsenal Ativo 168 / 162 40% 12 18.06.2027 -
Khéphren Thuram Aston Villa Ativo 161 / 152 40% 2 18.06.2027 -
William Saliba Arsenal Ativo 174 / 172 40% 21 17.06.2027 -
Jan Paul van Hecke Tottenham Ativo 155 / 164 40% 16 17.06.2027 -
Kiernan Dewsbury-Hall Everton Ativo 157 / 143 40% 9 16.06.2027 -
Alejandro Balde Barcelona Ativo 160 / 164 40% 3 12.06.2027 -
Amadou Onana Aston Villa Ativo 158 / 162 40% 19 11.06.2027 -
Iliman N'Diaye Everton Ativo 157 / 153 40% 7 31.05.2027 Observar
Vinícius Júnior Arsenal Ativo 179 / 175 40% 1 29.05.2027 -
Nicolas Jackson Aston Villa Ativo 153 / 143 40% 11 28.05.2027 -
Kai Havertz Arsenal Ativo 164 / 164 40% 10 24.05.2027 -
Tyler Adams Bournemouth Ativo 156 / 143 40% 17 23.05.2027 -
Quinten Timber Crystal Palace Ativo 152 / 145 40% 9 21.05.2027 -
Gabriel Arsenal Ativo 176 / 182 40% 13 21.05.2027 -
Callum Hudson-Odoi Nottingham Forest Ativo 151 / 154 40% 12 21.05.2027 -
Jacob Ramsey Newcastle United Ativo 156 / 148 40% 14 21.05.2027 -
Alexis Saelemaekers AC Milan Ativo 155 / 160 40% 7 19.05.2027 -
Xaver Schlager Nottingham Forest Ativo 148 / 161 40% 12 18.05.2027 -
Hector Ramirez Newcastle United Ativo 153 / 161 40% 30 10.05.2027 -
João Pedro Chelsea Ativo 155 / 160 40% 8 07.05.2027 -
Ricardo Pepi Chelsea Ativo 144 / 141 40% 1 03.05.2027 -
Bruno Guimarães Arsenal Ativo 169 / 162 40% 15 24.04.2027 -
Jarrad Branthwaite Everton Ativo 157 / 147 40% 12 24.04.2027 -
Adrien Truffert Bournemouth Ativo 153 / 151 40% 5 24.04.2027 -
Benjamin White Arsenal Ativo 160 / 159 40% 10 12.04.2027 -
James Maddison Tottenham Ativo 162 / 161 40% 7 06.04.2027 -
Tino Livramento Newcastle United Ativo 156 / 166 40% 3 05.04.2027 -
Jarrod Bowen West Ham United Ativo 152 / 144 40% 5 28.03.2027 -
Leon Goretzka Aston Villa Ativo 159 / 160 40% 7 07.03.2027 -
Reece James Chelsea Ativo 168 / 166 40% 11 28.02.2027 -
Stanislav Agkatsev Sunderland Negociando 132 / 133 66% 1 01.01.2027 Aprovar
Marvin Keller Bayer Leverkusen Ativo 136 / 137 67% 1 01.01.2027 Aprovar
James Garner Everton Ativo 152 / 159 40% 4 30.12.2026 -
Mikel Merino Arsenal Perdido 154 / 159 40% 2 21.12.2026 -
Andrew Robertson Tottenham Ativo 155 / 161 40% 6 15.12.2026 -
Ian Maatsen Aston Villa Ativo 153 / 160 40% 3 11.12.2026 -
Murillo Nottingham Forest Ativo 153 / 156 40% 7 06.12.2026 -
Federico Dimarco Inter Ativo 161 / 161 40% 1 30.11.2026 -
Nicolò Rovella Lazio Ativo 148 / 160 40% 2 17.11.2026 -
Conor Gallagher Tottenham Ativo 150 / 148 40% 6 10.11.2026 -
Malick Thiaw West Ham United Ativo 154 / 157 40% 2 12.10.2026 -
Matty Cash Aston Villa Ativo 150 / 144 40% 3 09.10.2026 -
Mauro Arambarri River Plate Ativo 156 / 136 40% 2 23.09.2026 -
Ezri Konsa Arsenal Ativo 148 / 150 40% 2 18.09.2026 -
Fabián Paris Saint-Germain Ativo 167 / 162 40% 1 15.09.2026 -
Stanislav Lobotka Galatasaray Ativo 158 / 169 40% 1 10.09.2026 -
Rodrigo De Paul Inter Miami CF Ativo 153 / 158 40% 1 24.08.2026 -